createdAt,value
2023-05-27T00:00:09.835Z,12.31
2023-05-27T00:01:03.080Z,12.21
2023-05-27T00:01:36.808Z,12.18
2023-05-27T00:02:10.019Z,12.17
2023-05-27T00:02:43.581Z,12.17
2023-05-27T00:03:17.135Z,12.17
2023-05-27T00:03:50.793Z,12.17
2023-05-27T00:04:24.100Z,12.17
2023-05-27T00:05:00.014Z,12.17
2023-05-27T00:05:33.356Z,12.17
2023-05-27T00:06:09.043Z,12.17
2023-05-27T00:06:42.434Z,12.17
2023-05-27T00:07:15.741Z,12.17
2023-05-27T00:07:48.971Z,12.17
2023-05-27T00:08:22.337Z,12.15
2023-05-27T00:08:56.160Z,12.16
2023-05-27T00:09:29.494Z,12.16
2023-05-27T00:10:03.283Z,12.17
2023-05-27T00:10:36.791Z,12.15
2023-05-27T00:11:09.954Z,12.15
2023-05-27T00:11:43.288Z,12.15
2023-05-27T00:12:16.903Z,12.15
2023-05-27T00:12:52.388Z,12.14
2023-05-27T00:13:28.822Z,12.13
2023-05-27T00:14:03.807Z,12.06
2023-05-27T00:14:37.148Z,12.09
2023-05-27T00:15:10.913Z,12.09
2023-05-27T00:15:44.625Z,12.09
2023-05-27T00:16:18.009Z,12.08
2023-05-27T00:16:52.520Z,12.07
2023-05-27T00:17:26.511Z,12.07
2023-05-27T00:18:04.883Z,12.06
2023-05-27T00:18:40.622Z,12.04
2023-05-27T00:19:14.239Z,12.04
2023-05-27T00:19:48.955Z,12.03
2023-05-27T00:20:23.967Z,12.03
2023-05-27T00:20:58.330Z,12.02
2023-05-27T00:21:31.525Z,12.02
2023-05-27T00:22:04.949Z,12.01
2023-05-27T00:22:38.413Z,12.02
2023-05-27T00:23:11.673Z,12.02
2023-05-27T00:23:48.417Z,12.01
2023-05-27T00:24:21.653Z,12.00
2023-05-27T00:24:55.039Z,11.99
2023-05-27T00:25:28.282Z,11.97
2023-05-27T00:26:01.585Z,11.97
2023-05-27T00:26:34.988Z,11.96
2023-05-27T00:27:10.573Z,11.96
2023-05-27T00:27:43.862Z,11.94
2023-05-27T00:28:17.282Z,11.94
2023-05-27T00:28:50.821Z,11.94
2023-05-27T00:29:25.892Z,11.93
2023-05-27T00:29:59.222Z,11.92
2023-05-27T00:30:33.094Z,11.90
2023-05-27T00:31:06.361Z,11.86
2023-05-27T00:31:39.714Z,11.90
2023-05-27T00:32:13.250Z,11.89
2023-05-27T00:32:47.085Z,11.90
2023-05-27T00:33:20.812Z,11.89
2023-05-27T00:33:54.351Z,11.89
2023-05-27T00:34:27.685Z,11.88
2023-05-27T00:35:00.941Z,11.87
2023-05-27T00:35:34.624Z,11.86
2023-05-27T00:36:08.776Z,11.83
2023-05-27T00:36:42.222Z,11.83
2023-05-27T00:37:15.677Z,11.81
2023-05-27T00:37:48.901Z,11.80
2023-05-27T00:38:22.595Z,11.78
2023-05-27T00:38:55.886Z,11.78
2023-05-27T00:39:29.268Z,11.76
2023-05-27T00:40:02.515Z,11.75
2023-05-27T00:40:39.079Z,11.73
2023-05-27T00:41:13.973Z,11.72
2023-05-27T00:41:50.747Z,11.71
2023-05-27T00:42:24.956Z,11.69
2023-05-27T00:43:04.435Z,11.68
2023-05-27T00:43:37.775Z,11.67
2023-05-27T00:44:11.551Z,11.67
2023-05-27T00:44:44.861Z,11.66
2023-05-27T00:45:18.362Z,11.65
2023-05-27T00:45:52.009Z,11.64
2023-05-27T00:46:25.605Z,11.63
2023-05-27T00:46:59.007Z,11.61
2023-05-27T00:47:34.693Z,11.61
2023-05-27T00:48:08.315Z,11.60
2023-05-27T00:48:41.762Z,11.59
2023-05-27T00:49:15.292Z,11.59
2023-05-27T00:49:49.759Z,11.59
2023-05-27T00:50:23.391Z,11.58
2023-05-27T00:50:57.157Z,11.57
2023-05-27T00:51:30.976Z,11.56
2023-05-27T00:52:04.492Z,11.55
2023-05-27T00:52:38.076Z,11.53
2023-05-27T00:53:11.357Z,11.52
2023-05-27T00:53:45.801Z,11.51
2023-05-27T00:54:19.725Z,11.50
2023-05-27T00:54:54.721Z,11.48
2023-05-27T00:55:28.279Z,11.47
2023-05-27T00:56:02.644Z,11.46
2023-05-27T00:56:38.026Z,11.48
2023-05-27T00:57:12.218Z,11.46
2023-05-27T00:57:45.799Z,11.45
2023-05-27T00:58:22.242Z,11.43
2023-05-27T00:58:55.754Z,11.42
2023-05-27T00:59:29.247Z,11.40
2023-05-27T01:00:03.820Z,11.40
2023-05-27T01:00:39.803Z,11.41
2023-05-27T01:01:13.537Z,11.40
2023-05-27T01:01:47.199Z,11.39
2023-05-27T01:02:21.987Z,11.38
2023-05-27T01:02:56.008Z,11.37
2023-05-27T01:03:30.255Z,11.37
2023-05-27T01:04:04.586Z,11.36
2023-05-27T01:04:38.102Z,11.35
2023-05-27T01:05:14.303Z,11.35
2023-05-27T01:05:47.960Z,11.34
2023-05-27T01:06:33.390Z,11.32
2023-05-27T01:07:23.644Z,11.30
2023-05-27T01:08:06.017Z,11.25
2023-05-27T01:09:04.661Z,11.23
2023-05-27T01:09:59.500Z,11.20
2023-05-27T01:10:46.898Z,11.16
2023-05-27T01:11:25.563Z,11.14
2023-05-27T01:12:09.265Z,11.12
2023-05-27T01:12:56.490Z,11.11
2023-05-27T01:13:39.778Z,11.08
2023-05-27T01:14:16.296Z,11.07
2023-05-27T01:14:51.953Z,11.07
2023-05-27T01:15:27.311Z,11.07
2023-05-27T01:16:03.028Z,11.06
2023-05-27T01:16:45.232Z,11.06
2023-05-27T01:17:20.967Z,11.06
2023-05-27T01:17:57.843Z,11.05
2023-05-27T01:18:34.441Z,11.05
2023-05-27T01:19:16.099Z,11.02
2023-05-27T01:19:51.549Z,11.03
2023-05-27T01:20:26.484Z,11.02
2023-05-27T01:21:06.992Z,11.02
2023-05-27T01:21:41.064Z,11.00
2023-05-27T01:22:16.157Z,11.00
2023-05-27T01:22:53.518Z,10.98
2023-05-27T01:23:26.958Z,10.98
2023-05-27T01:24:04.841Z,10.97
2023-05-27T01:24:38.699Z,10.95
2023-05-27T01:25:12.049Z,10.94
2023-05-27T01:25:46.149Z,10.94
2023-05-27T01:26:19.723Z,10.94
2023-05-27T01:26:54.196Z,10.93
2023-05-27T01:27:27.497Z,10.93
2023-05-27T01:28:00.739Z,10.93
2023-05-27T01:28:34.385Z,10.92
2023-05-27T01:29:07.655Z,10.92
2023-05-27T01:29:42.507Z,10.92
2023-05-27T01:30:17.398Z,10.92
2023-05-27T01:30:56.349Z,10.91
2023-05-27T01:31:36.536Z,10.88
2023-05-27T01:32:16.914Z,10.89
2023-05-27T01:32:52.752Z,10.88
2023-05-27T01:33:31.972Z,10.88
2023-05-27T01:34:10.824Z,10.86
2023-05-27T01:35:14.408Z,10.87
2023-05-27T01:35:59.737Z,10.83
2023-05-27T01:36:39.044Z,10.81
2023-05-27T01:37:18.434Z,10.81
2023-05-27T01:37:54.344Z,10.80
2023-05-27T01:38:30.217Z,10.80
2023-05-27T01:39:06.337Z,10.79
2023-05-27T01:39:40.814Z,10.78
2023-05-27T01:40:15.912Z,10.76
2023-05-27T01:40:50.644Z,10.75
2023-05-27T01:41:24.024Z,10.74
2023-05-27T01:41:59.434Z,10.74
2023-05-27T01:42:35.858Z,10.71
2023-05-27T01:43:10.521Z,10.68
2023-05-27T01:43:46.147Z,10.66
2023-05-27T01:44:20.148Z,10.65
2023-05-27T01:44:57.600Z,10.63
2023-05-27T01:45:31.645Z,10.63
2023-05-27T01:46:04.971Z,10.62
2023-05-27T01:46:38.340Z,10.61
2023-05-27T01:47:12.174Z,10.60
2023-05-27T01:47:48.734Z,10.59
2023-05-27T01:48:22.125Z,10.58
2023-05-27T01:48:55.306Z,10.57
2023-05-27T01:50:44.121Z,10.49
2023-05-27T01:51:18.742Z,10.42
2023-05-27T01:51:52.309Z,10.43
2023-05-27T01:52:26.170Z,10.43
2023-05-27T01:52:59.553Z,10.43
2023-05-27T01:53:33.150Z,10.43
2023-05-27T01:54:06.542Z,10.44
2023-05-27T01:54:40.766Z,10.43
2023-05-27T01:55:15.286Z,10.43
2023-05-27T01:55:49.117Z,10.40
2023-05-27T01:56:24.610Z,10.42
2023-05-27T01:56:58.124Z,10.42
2023-05-27T01:57:31.487Z,10.41
2023-05-27T01:58:06.581Z,10.39
2023-05-27T01:58:39.968Z,10.39
2023-05-27T01:59:13.297Z,10.40
2023-05-27T01:59:47.057Z,10.40
2023-05-27T02:00:25.699Z,10.40
2023-05-27T02:00:59.096Z,10.39
2023-05-27T02:01:35.176Z,10.38
2023-05-27T02:02:09.213Z,10.37
2023-05-27T02:02:42.880Z,10.35
2023-05-27T02:03:16.528Z,10.34
2023-05-27T02:03:51.377Z,10.33
2023-05-27T02:04:24.820Z,10.32
2023-05-27T02:04:58.164Z,10.30
2023-05-27T02:05:31.488Z,10.29
2023-05-27T02:06:05.099Z,10.29
2023-05-27T02:06:38.799Z,10.27
2023-05-27T02:07:12.121Z,10.27
2023-05-27T02:07:45.502Z,10.27
2023-05-27T02:08:18.844Z,10.26
2023-05-27T02:08:52.442Z,10.26
2023-05-27T02:09:25.779Z,10.25
2023-05-27T02:10:00.385Z,10.21
2023-05-27T02:10:33.871Z,10.24
2023-05-27T02:11:07.198Z,10.24
2023-05-27T02:11:40.572Z,10.24
2023-05-27T02:12:14.012Z,10.24
2023-05-27T02:12:49.040Z,10.23
2023-05-27T02:13:22.479Z,10.17
2023-05-27T02:13:57.314Z,10.22
2023-05-27T02:14:32.340Z,10.20
2023-05-27T02:15:06.248Z,10.22
2023-05-27T02:15:39.570Z,10.21
2023-05-27T02:16:13.751Z,10.22
2023-05-27T02:16:48.526Z,10.22
2023-05-27T02:17:22.505Z,10.22
2023-05-27T02:17:57.407Z,10.22
2023-05-27T02:18:32.483Z,10.22
2023-05-27T02:19:07.971Z,10.23
2023-05-27T02:19:42.504Z,10.22
2023-05-27T02:20:17.787Z,10.21
2023-05-27T02:20:51.235Z,10.21
2023-05-27T02:21:25.991Z,10.14
2023-05-27T02:21:59.288Z,10.20
2023-05-27T02:22:32.672Z,10.19
2023-05-27T02:23:07.960Z,10.19
2023-05-27T02:23:41.555Z,10.19
2023-05-27T02:24:14.898Z,10.18
2023-05-27T02:24:48.328Z,10.17
2023-05-27T02:25:21.620Z,10.16
2023-05-27T02:25:54.982Z,10.15
2023-05-27T02:26:28.608Z,10.14
2023-05-27T02:27:02.742Z,10.14
2023-05-27T02:27:36.219Z,10.13
2023-05-27T02:28:09.611Z,10.12
2023-05-27T02:28:42.895Z,10.12
2023-05-27T02:29:16.395Z,10.13
2023-05-27T02:29:49.838Z,10.13
2023-05-27T02:30:23.723Z,10.12
2023-05-27T02:30:59.667Z,10.12
2023-05-27T02:31:33.141Z,10.13
2023-05-27T02:32:07.180Z,10.12
2023-05-27T02:32:40.580Z,10.11
2023-05-27T02:33:14.173Z,10.09
2023-05-27T02:33:47.732Z,10.11
2023-05-27T02:34:21.153Z,10.10
2023-05-27T02:34:56.727Z,10.10
2023-05-27T02:35:30.895Z,10.10
2023-05-27T02:36:04.423Z,10.10
2023-05-27T02:36:37.943Z,10.10
2023-05-27T02:37:11.228Z,10.08
2023-05-27T02:37:44.712Z,10.08
2023-05-27T02:38:18.154Z,10.08
2023-05-27T02:38:51.393Z,10.09
2023-05-27T02:39:24.747Z,10.08
2023-05-27T02:39:59.752Z,10.08
2023-05-27T02:40:34.281Z,10.06
2023-05-27T02:41:07.564Z,10.08
2023-05-27T02:41:41.360Z,10.08
2023-05-27T02:42:14.668Z,10.06
2023-05-27T02:42:48.180Z,10.07
2023-05-27T02:43:21.514Z,10.06
2023-05-27T02:43:55.965Z,10.06
2023-05-27T02:44:29.449Z,10.05
2023-05-27T02:45:05.027Z,10.04
2023-05-27T02:45:38.293Z,10.02
2023-05-27T02:46:12.888Z,10.00
2023-05-27T02:46:46.487Z,9.99
2023-05-27T02:47:20.541Z,10.00
2023-05-27T02:47:56.707Z,9.99
2023-05-27T02:48:30.197Z,9.98
2023-05-27T02:49:03.746Z,9.96
2023-05-27T02:49:37.074Z,9.96
2023-05-27T02:50:10.817Z,9.95
2023-05-27T02:50:44.146Z,9.95
2023-05-27T02:51:17.665Z,9.93
2023-05-27T02:51:51.112Z,9.93
2023-05-27T02:52:25.045Z,9.90
2023-05-27T02:52:58.875Z,9.90
2023-05-27T02:53:32.335Z,9.90
2023-05-27T02:54:06.142Z,9.89
2023-05-27T02:54:39.392Z,9.86
2023-05-27T02:55:12.810Z,9.87
2023-05-27T02:55:46.179Z,9.85
2023-05-27T02:56:19.601Z,9.83
2023-05-27T02:56:53.195Z,9.82
2023-05-27T02:57:26.522Z,9.81
2023-05-27T02:57:59.756Z,9.80
2023-05-27T02:58:33.277Z,9.80
2023-05-27T02:59:07.017Z,9.78
2023-05-27T02:59:40.334Z,9.77
2023-05-27T03:00:14.855Z,9.75
2023-05-27T03:00:48.266Z,9.74
2023-05-27T03:01:22.967Z,9.73
2023-05-27T03:01:56.297Z,9.73
2023-05-27T03:02:29.791Z,9.70
2023-05-27T03:03:06.683Z,9.70
2023-05-27T03:03:40.397Z,9.70
2023-05-27T03:04:14.064Z,9.70
2023-05-27T03:04:49.023Z,9.70
2023-05-27T03:05:22.932Z,9.69
2023-05-27T03:05:57.355Z,9.67
2023-05-27T03:06:30.787Z,9.68
2023-05-27T03:07:04.181Z,9.67
2023-05-27T03:07:37.609Z,9.66
2023-05-27T03:08:10.966Z,9.64
2023-05-27T03:08:44.430Z,9.65
2023-05-27T03:09:17.893Z,9.64
2023-05-27T03:09:51.205Z,9.64
2023-05-27T03:10:24.438Z,9.63
2023-05-27T03:10:57.874Z,9.62
2023-05-27T03:11:31.383Z,9.61
2023-05-27T03:12:09.361Z,9.59
2023-05-27T03:12:42.862Z,9.58
2023-05-27T03:13:16.317Z,9.54
2023-05-27T03:13:49.621Z,9.57
2023-05-27T03:14:22.991Z,9.57
2023-05-27T03:14:56.249Z,9.57
2023-05-27T03:15:31.183Z,9.57
2023-05-27T03:16:04.750Z,9.57
2023-05-27T03:16:38.098Z,9.57
2023-05-27T03:17:11.437Z,9.57
2023-05-27T03:17:44.737Z,9.57
2023-05-27T03:18:18.376Z,9.55
2023-05-27T03:18:51.990Z,9.55
2023-05-27T03:19:25.432Z,9.55
2023-05-27T03:19:58.815Z,9.56
2023-05-27T03:20:32.310Z,9.54
2023-05-27T03:21:05.929Z,9.54
2023-05-27T03:21:39.181Z,9.54
2023-05-27T03:22:13.639Z,9.54
2023-05-27T03:22:47.745Z,9.53
2023-05-27T03:23:21.313Z,9.54
2023-05-27T03:23:54.885Z,9.54
2023-05-27T03:24:28.284Z,9.54
2023-05-27T03:25:01.700Z,9.55
2023-05-27T03:25:35.381Z,9.55
2023-05-27T03:26:09.483Z,9.54
2023-05-27T03:26:43.022Z,9.54
2023-05-27T03:27:16.619Z,9.54
2023-05-27T03:27:51.368Z,9.52
2023-05-27T03:28:24.683Z,9.54
2023-05-27T03:28:58.053Z,9.54
2023-05-27T03:29:32.771Z,9.54
2023-05-27T03:30:07.128Z,9.54
2023-05-27T03:30:44.612Z,9.51
2023-05-27T03:31:25.952Z,9.50
2023-05-27T03:32:05.106Z,9.50
2023-05-27T03:32:39.047Z,9.46
2023-05-27T03:33:12.543Z,9.49
2023-05-27T03:33:46.107Z,9.49
2023-05-27T03:34:19.424Z,9.50
2023-05-27T03:34:52.740Z,9.50
2023-05-27T03:35:26.311Z,9.48
2023-05-27T03:35:59.909Z,9.48
2023-05-27T03:36:38.448Z,9.49
2023-05-27T03:37:11.815Z,9.50
2023-05-27T03:37:54.419Z,9.49
2023-05-27T03:38:27.893Z,9.49
2023-05-27T03:39:01.910Z,9.49
2023-05-27T03:39:37.272Z,9.50
2023-05-27T03:40:11.144Z,9.49
2023-05-27T03:40:44.506Z,9.51
2023-05-27T03:41:17.859Z,9.51
2023-05-27T03:41:51.436Z,9.51
2023-05-27T03:42:24.686Z,9.51
2023-05-27T03:42:58.075Z,9.51
2023-05-27T03:43:31.470Z,9.51
2023-05-27T03:44:05.023Z,9.49
2023-05-27T03:44:38.346Z,9.51
2023-05-27T03:45:11.875Z,9.52
2023-05-27T03:45:45.761Z,9.52
2023-05-27T03:46:19.118Z,9.53
2023-05-27T03:46:52.581Z,9.53
2023-05-27T03:47:25.958Z,9.51
2023-05-27T03:47:59.313Z,9.51
2023-05-27T03:48:32.636Z,9.52
2023-05-27T03:49:05.927Z,9.52
2023-05-27T03:49:39.642Z,9.52
2023-05-27T03:50:13.019Z,9.43
2023-05-27T03:50:46.468Z,9.53
2023-05-27T03:51:21.990Z,9.53
2023-05-27T03:51:55.832Z,9.54
2023-05-27T03:52:29.265Z,9.54
2023-05-27T03:53:02.526Z,9.55
2023-05-27T03:53:36.791Z,9.54
2023-05-27T03:54:10.471Z,9.55
2023-05-27T03:54:43.939Z,9.56
2023-05-27T03:55:22.281Z,9.57
2023-05-27T03:55:56.061Z,9.54
2023-05-27T03:56:30.166Z,9.57
2023-05-27T03:57:04.082Z,9.58
2023-05-27T03:57:37.578Z,9.58
2023-05-27T03:58:14.719Z,9.59
2023-05-27T03:58:48.614Z,9.57
2023-05-27T03:59:22.198Z,9.60
2023-05-27T03:59:56.289Z,9.61
2023-05-27T04:00:29.755Z,9.62
2023-05-27T04:01:03.310Z,9.63
2023-05-27T04:01:36.880Z,9.62
2023-05-27T04:02:10.158Z,9.63
2023-05-27T04:02:43.571Z,9.65
2023-05-27T04:03:17.205Z,9.64
2023-05-27T04:03:51.373Z,9.66
2023-05-27T04:04:24.654Z,9.67
2023-05-27T04:05:00.950Z,9.65
2023-05-27T04:05:35.685Z,9.67
2023-05-27T04:06:10.391Z,9.62
2023-05-27T04:06:43.921Z,9.61
2023-05-27T04:07:19.361Z,9.63
2023-05-27T04:07:56.224Z,9.62
2023-05-27T04:08:29.457Z,9.61
2023-05-27T04:09:04.419Z,9.61
2023-05-27T04:09:37.727Z,9.62
2023-05-27T04:10:12.219Z,9.62
2023-05-27T04:10:45.935Z,9.63
2023-05-27T04:11:20.135Z,9.65
2023-05-27T04:11:54.442Z,9.63
2023-05-27T04:12:30.212Z,9.64
2023-05-27T04:13:03.641Z,9.60
2023-05-27T04:13:36.968Z,9.65
2023-05-27T04:14:11.037Z,9.66
2023-05-27T04:14:44.673Z,9.68
2023-05-27T04:15:17.950Z,9.69
2023-05-27T04:15:51.602Z,9.72
2023-05-27T04:16:26.209Z,9.73
2023-05-27T04:16:59.628Z,9.75
2023-05-27T04:17:33.016Z,9.76
2023-05-27T04:18:06.442Z,9.78
2023-05-27T04:18:39.848Z,9.80
2023-05-27T04:19:14.963Z,9.82
2023-05-27T04:19:50.198Z,9.83
2023-05-27T04:20:24.696Z,9.85
2023-05-27T04:21:01.362Z,9.87
2023-05-27T04:21:34.817Z,9.89
2023-05-27T04:22:08.217Z,9.90
2023-05-27T04:22:42.735Z,9.91
2023-05-27T04:23:16.123Z,9.93
2023-05-27T04:23:50.001Z,9.94
2023-05-27T04:24:23.477Z,9.96
2023-05-27T04:24:56.833Z,9.97
2023-05-27T04:25:30.145Z,9.97
2023-05-27T04:26:10.329Z,9.96
2023-05-27T04:26:47.255Z,9.98
2023-05-27T04:27:21.942Z,9.98
2023-05-27T04:27:55.332Z,9.99
2023-05-27T04:28:29.134Z,10.00
2023-05-27T04:29:02.980Z,10.01
2023-05-27T04:29:54.017Z,10.04
2023-05-27T04:30:27.316Z,10.01
2023-05-27T04:31:01.478Z,10.01
2023-05-27T04:31:41.611Z,10.02
2023-05-27T04:32:21.933Z,10.03
2023-05-27T04:32:55.989Z,10.02
2023-05-27T04:33:29.369Z,10.05
2023-05-27T04:34:04.210Z,10.06
2023-05-27T04:34:38.141Z,10.08
2023-05-27T04:35:12.111Z,10.10
2023-05-27T04:35:45.613Z,10.12
2023-05-27T04:36:19.639Z,10.13
2023-05-27T04:37:04.133Z,10.14
2023-05-27T04:37:37.997Z,10.14
2023-05-27T04:38:18.080Z,10.17
2023-05-27T04:39:06.882Z,10.16
2023-05-27T04:39:46.933Z,10.18
2023-05-27T04:40:20.857Z,10.19
2023-05-27T04:41:15.456Z,10.18
2023-05-27T04:42:16.762Z,10.19
2023-05-27T04:42:54.782Z,10.19
2023-05-27T04:43:30.703Z,10.21
2023-05-27T04:44:04.058Z,10.23
2023-05-27T04:44:42.126Z,10.24
2023-05-27T04:45:15.638Z,10.28
2023-05-27T04:45:49.629Z,10.28
2023-05-27T04:46:23.246Z,10.28
2023-05-27T04:46:57.103Z,10.32
2023-05-27T04:47:31.943Z,10.34
2023-05-27T04:48:05.382Z,10.35
2023-05-27T04:48:38.833Z,10.36
2023-05-27T04:49:12.073Z,10.36
2023-05-27T04:49:48.067Z,10.41
2023-05-27T04:50:21.935Z,10.43
2023-05-27T04:50:55.354Z,10.44
2023-05-27T04:51:28.860Z,10.45
2023-05-27T04:52:02.920Z,10.49
2023-05-27T04:52:45.074Z,10.51
2023-05-27T04:53:19.533Z,10.52
2023-05-27T04:53:53.022Z,10.54
2023-05-27T04:54:28.238Z,10.57
2023-05-27T04:55:02.782Z,10.59
2023-05-27T04:55:43.849Z,10.60
2023-05-27T04:56:18.573Z,10.62
2023-05-27T04:56:53.336Z,10.65
2023-05-27T04:57:30.234Z,10.67
2023-05-27T04:58:04.973Z,10.66
2023-05-27T04:58:40.803Z,10.70
2023-05-27T04:59:18.127Z,10.69
2023-05-27T05:00:19.442Z,10.73
2023-05-27T05:00:54.806Z,10.74
2023-05-27T05:01:30.541Z,10.71
2023-05-27T05:02:12.150Z,10.73
2023-05-27T05:03:02.625Z,10.77
2023-05-27T05:03:38.508Z,10.77
2023-05-27T05:04:14.815Z,10.78
2023-05-27T05:04:54.456Z,10.80
2023-05-27T05:05:29.573Z,10.81
2023-05-27T05:06:04.320Z,10.82
2023-05-27T05:06:39.292Z,10.85
2023-05-27T05:07:12.618Z,10.86
2023-05-27T05:07:46.040Z,10.87
2023-05-27T05:08:21.370Z,10.88
2023-05-27T05:08:55.089Z,10.89
2023-05-27T05:09:28.580Z,10.91
2023-05-27T05:10:03.881Z,10.93
2023-05-27T05:10:41.628Z,10.96
2023-05-27T05:11:15.703Z,10.98
2023-05-27T05:11:49.366Z,10.99
2023-05-27T05:12:23.811Z,11.04
2023-05-27T05:12:57.399Z,11.06
2023-05-27T05:13:31.096Z,11.08
2023-05-27T05:14:04.705Z,11.11
2023-05-27T05:14:38.221Z,11.13
2023-05-27T05:15:11.629Z,11.15
2023-05-27T05:15:45.073Z,11.16
2023-05-27T05:16:18.456Z,11.18
2023-05-27T05:16:51.893Z,11.20
2023-05-27T05:17:25.872Z,11.21
2023-05-27T05:18:00.835Z,11.22
2023-05-27T05:18:35.709Z,11.24
2023-05-27T05:19:11.125Z,11.25
2023-05-27T05:19:46.515Z,11.29
2023-05-27T05:20:20.221Z,11.31
2023-05-27T05:20:53.861Z,11.31
2023-05-27T05:21:32.724Z,11.31
2023-05-27T05:22:06.648Z,11.34
2023-05-27T05:22:40.151Z,11.37
2023-05-27T05:23:13.564Z,11.39
2023-05-27T05:23:48.161Z,11.42
2023-05-27T05:24:21.612Z,11.43
2023-05-27T05:24:55.924Z,11.42
2023-05-27T05:25:39.082Z,11.45
2023-05-27T05:26:13.056Z,11.47
2023-05-27T05:26:47.688Z,11.50
2023-05-27T05:27:20.976Z,11.52
2023-05-27T05:27:54.867Z,11.54
2023-05-27T05:28:28.623Z,11.56
2023-05-27T05:29:01.973Z,11.59
2023-05-27T05:29:35.578Z,11.60
2023-05-27T05:30:09.520Z,11.63
2023-05-27T05:30:42.739Z,11.63
2023-05-27T05:31:16.486Z,11.63
2023-05-27T05:31:50.286Z,11.65
2023-05-27T05:32:24.686Z,11.64
2023-05-27T05:32:59.388Z,11.68
2023-05-27T05:33:35.553Z,11.70
2023-05-27T05:34:09.084Z,11.71
2023-05-27T05:34:43.025Z,11.75
2023-05-27T05:35:16.738Z,11.77
2023-05-27T05:35:54.106Z,11.79
2023-05-27T05:36:31.668Z,11.81
2023-05-27T05:37:08.200Z,11.81
2023-05-27T05:37:41.572Z,11.83
2023-05-27T05:38:14.884Z,11.85
2023-05-27T05:38:48.534Z,11.87
2023-05-27T05:39:22.080Z,11.90
2023-05-27T05:39:58.100Z,11.90
2023-05-27T05:40:31.706Z,11.92
2023-05-27T05:41:19.150Z,11.92
2023-05-27T05:41:53.019Z,11.93
2023-05-27T05:42:26.552Z,11.95
2023-05-27T05:43:00.462Z,11.96
2023-05-27T05:43:33.733Z,11.97
2023-05-27T05:44:07.624Z,11.99
2023-05-27T05:44:41.333Z,12.01
2023-05-27T05:45:14.749Z,12.01
2023-05-27T05:45:48.697Z,12.02
2023-05-27T05:46:23.141Z,12.03
2023-05-27T05:46:56.639Z,12.03
2023-05-27T05:47:31.035Z,12.06
2023-05-27T05:48:11.634Z,12.05
2023-05-27T05:48:47.840Z,12.05
2023-05-27T05:49:25.588Z,12.06
2023-05-27T05:49:59.223Z,12.07
2023-05-27T05:50:33.877Z,12.10
2023-05-27T05:51:07.922Z,12.12
2023-05-27T05:51:42.047Z,12.14
2023-05-27T05:52:15.732Z,12.16
2023-05-27T05:52:49.187Z,12.17
2023-05-27T05:53:22.608Z,12.18
2023-05-27T05:53:56.356Z,12.19
2023-05-27T05:54:29.888Z,12.21
2023-05-27T05:55:04.542Z,12.22
2023-05-27T05:55:38.694Z,12.24
2023-05-27T05:56:12.238Z,12.26
2023-05-27T05:56:45.912Z,12.27
2023-05-27T05:57:19.420Z,12.29
2023-05-27T05:57:52.671Z,12.30
2023-05-27T05:58:26.096Z,12.33
2023-05-27T05:58:59.344Z,12.34
2023-05-27T05:59:33.393Z,12.36
2023-05-27T06:00:09.391Z,12.36
2023-05-27T06:00:51.954Z,12.39
2023-05-27T06:01:51.321Z,12.38
2023-05-27T06:02:26.767Z,12.39
2023-05-27T06:03:00.360Z,12.42
2023-05-27T06:04:00.756Z,12.43
2023-05-27T06:05:00.008Z,12.48
2023-05-27T06:05:34.385Z,12.46
2023-05-27T06:06:07.990Z,12.49
2023-05-27T06:06:46.459Z,12.53
2023-05-27T06:07:35.215Z,12.55
2023-05-27T06:08:14.604Z,12.58
2023-05-27T06:08:52.272Z,12.60
2023-05-27T06:09:26.827Z,12.63
2023-05-27T06:10:02.210Z,12.67
2023-05-27T06:10:42.283Z,12.67
2023-05-27T06:11:15.883Z,12.69
2023-05-27T06:11:50.557Z,12.73
2023-05-27T06:12:25.634Z,12.77
2023-05-27T06:12:59.530Z,12.80
2023-05-27T06:13:32.967Z,12.82
2023-05-27T06:14:06.578Z,12.85
2023-05-27T06:14:39.972Z,12.88
2023-05-27T06:15:13.673Z,12.94
2023-05-27T06:15:48.739Z,13.03
2023-05-27T06:16:22.876Z,13.15
2023-05-27T06:16:56.476Z,13.26
2023-05-27T06:17:29.872Z,13.39
2023-05-27T06:18:03.450Z,13.57
2023-05-27T06:18:37.538Z,13.68
2023-05-27T06:19:10.913Z,13.79
2023-05-27T06:19:44.169Z,13.91
2023-05-27T06:20:18.148Z,14.04
2023-05-27T06:20:51.676Z,14.15
2023-05-27T06:21:25.500Z,14.28
2023-05-27T06:22:21.984Z,14.48
2023-05-27T06:23:30.589Z,14.70
2023-05-27T06:24:20.477Z,14.87
2023-05-27T06:24:58.034Z,14.99
2023-05-27T06:25:44.190Z,15.15
2023-05-27T06:26:17.716Z,15.29
2023-05-27T06:26:55.453Z,15.40
2023-05-27T06:27:29.261Z,15.52
2023-05-27T06:28:02.625Z,15.61
2023-05-27T06:28:36.113Z,15.68
2023-05-27T06:29:09.718Z,15.74
2023-05-27T06:29:43.061Z,15.83
2023-05-27T06:30:16.867Z,15.90
2023-05-27T06:30:51.517Z,16.00
2023-05-27T06:31:25.149Z,16.08
2023-05-27T06:31:58.779Z,16.19
2023-05-27T06:32:32.430Z,16.25
2023-05-27T06:33:06.129Z,16.29
2023-05-27T06:33:42.160Z,16.37
2023-05-27T06:34:17.250Z,16.43
2023-05-27T06:34:51.019Z,16.49
2023-05-27T06:35:24.678Z,16.58
2023-05-27T06:35:58.127Z,16.63
2023-05-27T06:36:31.948Z,16.68
2023-05-27T06:37:05.750Z,16.80
2023-05-27T06:37:39.200Z,16.82
2023-05-27T06:38:13.100Z,16.87
2023-05-27T06:38:46.690Z,16.93
2023-05-27T06:39:20.277Z,16.97
2023-05-27T06:39:53.698Z,17.00
2023-05-27T06:40:27.610Z,17.09
2023-05-27T06:41:01.117Z,17.14
2023-05-27T06:41:34.693Z,17.17
2023-05-27T06:42:30.810Z,17.22
2023-05-27T06:43:19.083Z,17.31
2023-05-27T06:44:06.781Z,17.38
2023-05-27T06:44:48.856Z,17.48
2023-05-27T06:45:28.554Z,17.53
2023-05-27T06:46:11.394Z,17.65
2023-05-27T06:47:07.746Z,17.70
2023-05-27T06:47:41.604Z,17.80
2023-05-27T06:48:14.976Z,17.86
2023-05-27T06:48:48.380Z,17.85
2023-05-27T06:49:21.779Z,17.87
2023-05-27T06:49:55.537Z,17.93
2023-05-27T06:50:28.924Z,17.97
2023-05-27T06:51:02.538Z,18.06
2023-05-27T06:51:36.641Z,18.05
2023-05-27T06:52:11.885Z,18.12
2023-05-27T06:53:15.900Z,18.15
2023-05-27T06:54:01.810Z,18.23
2023-05-27T06:54:48.307Z,18.27
2023-05-27T06:55:50.763Z,18.36
2023-05-27T06:56:44.606Z,18.49
2023-05-27T06:57:36.628Z,18.55
2023-05-27T06:58:18.430Z,18.63
2023-05-27T06:59:02.076Z,18.69
2023-05-27T06:59:35.713Z,18.73
2023-05-27T07:00:09.695Z,18.81
2023-05-27T07:00:49.700Z,18.85
2023-05-27T07:01:43.844Z,18.94
2023-05-27T07:02:20.088Z,19.01
2023-05-27T07:02:53.441Z,19.01
2023-05-27T07:03:26.962Z,19.06
2023-05-27T07:04:00.635Z,19.09
2023-05-27T07:04:57.261Z,19.14
2023-05-27T07:05:30.860Z,19.22
2023-05-27T07:06:05.100Z,19.31
2023-05-27T07:06:44.764Z,19.38
2023-05-27T07:07:18.401Z,19.43
2023-05-27T07:07:51.793Z,19.48
2023-05-27T07:08:25.580Z,19.55
2023-05-27T07:09:12.625Z,19.66
2023-05-27T07:09:46.117Z,19.76
2023-05-27T07:10:19.471Z,19.85
2023-05-27T07:10:53.185Z,19.88
2023-05-27T07:11:27.728Z,19.94
2023-05-27T07:12:09.929Z,19.95
2023-05-27T07:13:00.015Z,19.98
2023-05-27T07:13:40.684Z,20.07
2023-05-27T07:14:14.547Z,20.07
2023-05-27T07:14:48.708Z,20.09
2023-05-27T07:15:21.968Z,20.15
2023-05-27T07:15:55.671Z,20.19
2023-05-27T07:16:29.121Z,20.24
2023-05-27T07:17:02.841Z,20.25
2023-05-27T07:17:36.565Z,20.36
2023-05-27T07:18:10.114Z,20.33
2023-05-27T07:18:44.580Z,20.36
2023-05-27T07:19:18.432Z,20.43
2023-05-27T07:19:55.942Z,20.45
2023-05-27T07:20:29.409Z,20.52
2023-05-27T07:21:02.869Z,20.57
2023-05-27T07:21:37.897Z,20.62
2023-05-27T07:22:14.987Z,20.67
2023-05-27T07:22:48.354Z,20.74
2023-05-27T07:23:22.094Z,20.70
2023-05-27T07:24:05.534Z,20.73
2023-05-27T07:24:40.340Z,20.82
2023-05-27T07:25:13.759Z,20.90
2023-05-27T07:25:47.166Z,20.97
2023-05-27T07:26:20.502Z,21.04
2023-05-27T07:26:53.824Z,21.05
2023-05-27T07:27:27.347Z,21.12
2023-05-27T07:28:04.196Z,21.22
2023-05-27T07:28:38.680Z,21.28
2023-05-27T07:29:28.302Z,21.33
2023-05-27T07:30:01.586Z,21.40
2023-05-27T07:31:05.284Z,21.53
2023-05-27T07:31:40.911Z,21.61
2023-05-27T07:32:19.246Z,21.72
2023-05-27T07:32:53.195Z,21.78
2023-05-27T07:33:26.686Z,21.85
2023-05-27T07:34:00.079Z,21.89
2023-05-27T07:34:33.658Z,22.00
2023-05-27T07:35:07.507Z,21.98
2023-05-27T07:35:41.800Z,21.97
2023-05-27T07:36:15.223Z,22.02
2023-05-27T07:36:49.725Z,22.00
2023-05-27T07:37:24.827Z,22.05
2023-05-27T07:37:58.173Z,22.07
2023-05-27T07:38:32.079Z,22.09
2023-05-27T07:39:05.606Z,22.12
2023-05-27T07:39:39.257Z,22.18
2023-05-27T07:40:13.028Z,22.23
2023-05-27T07:40:46.986Z,22.28
2023-05-27T07:41:20.302Z,22.34
2023-05-27T07:41:53.586Z,22.37